createdAt,value
2018-04-11T00:00:15.512Z,0
2018-04-11T00:01:16.171Z,0
2018-04-11T00:02:16.826Z,0
2018-04-11T00:03:17.486Z,0
2018-04-11T00:04:18.142Z,0
2018-04-11T00:05:18.811Z,0
2018-04-11T00:06:19.501Z,0
2018-04-11T00:07:20.159Z,0
2018-04-11T00:08:20.853Z,0
2018-04-11T00:09:21.513Z,0
2018-04-11T00:10:22.172Z,0
2018-04-11T00:11:22.829Z,0
2018-04-11T00:12:23.491Z,0
2018-04-11T00:13:24.144Z,0
2018-04-11T00:14:24.804Z,0
2018-04-11T00:15:25.462Z,0
2018-04-11T00:16:26.119Z,0
2018-04-11T00:17:26.778Z,0
2018-04-11T00:18:27.437Z,0
2018-04-11T00:19:28.134Z,0
2018-04-11T00:20:28.791Z,0
2018-04-11T00:21:29.449Z,0
2018-04-11T00:22:30.108Z,0
2018-04-11T00:23:30.767Z,0
2018-04-11T00:24:31.427Z,0
2018-04-11T00:25:32.087Z,0
2018-04-11T00:26:32.781Z,0
2018-04-11T00:27:33.438Z,0
2018-04-11T00:28:34.096Z,0
2018-04-11T00:29:34.754Z,0
2018-04-11T00:30:35.411Z,0
2018-04-11T00:31:36.119Z,0
2018-04-11T00:32:36.778Z,0
2018-04-11T00:33:37.436Z,0
2018-04-11T00:34:38.094Z,0
2018-04-11T00:35:38.753Z,0
2018-04-11T00:36:39.410Z,0
2018-04-11T00:37:40.067Z,0
2018-04-11T00:38:40.725Z,0
2018-04-11T00:39:41.382Z,0
2018-04-11T00:40:42.041Z,0
2018-04-11T00:41:42.737Z,0
2018-04-11T00:42:43.404Z,0
2018-04-11T00:43:44.054Z,0
2018-04-11T00:44:44.712Z,0
2018-04-11T00:45:45.372Z,0
2018-04-11T00:46:46.079Z,0
2018-04-11T00:47:46.775Z,0
2018-04-11T00:48:47.433Z,0
2018-04-11T00:49:48.091Z,0
2018-04-11T00:50:48.750Z,0
2018-04-11T00:51:49.407Z,0
2018-04-11T00:52:50.065Z,0
2018-04-11T00:53:50.723Z,0
2018-04-11T00:54:51.380Z,0
2018-04-11T00:55:52.039Z,0
2018-04-11T00:56:52.696Z,0
2018-04-11T00:57:53.353Z,0
2018-04-11T00:58:54.012Z,0
2018-04-11T00:59:54.670Z,0
2018-04-11T01:00:55.328Z,0
2018-04-11T01:01:55.986Z,0
2018-04-11T01:02:56.644Z,0
2018-04-11T01:03:57.301Z,0
2018-04-11T01:04:57.959Z,0
2018-04-11T01:05:58.615Z,0
2018-04-11T01:06:59.269Z,0
2018-04-11T01:07:59.929Z,0
2018-04-11T01:09:00.582Z,0
2018-04-11T01:10:01.239Z,0
2018-04-11T01:11:01.894Z,0
2018-04-11T01:12:02.552Z,0
2018-04-11T01:13:03.209Z,0
2018-04-11T01:14:03.867Z,0
2018-04-11T01:15:04.559Z,0
2018-04-11T01:16:05.214Z,0
2018-04-11T01:17:05.871Z,0
2018-04-11T01:18:06.528Z,0
2018-04-11T01:19:07.183Z,0
2018-04-11T01:20:07.839Z,0
2018-04-11T01:21:08.494Z,0
2018-04-11T01:22:09.151Z,0
2018-04-11T01:23:09.808Z,0
2018-04-11T01:24:10.500Z,0
2018-04-11T01:25:11.157Z,0
2018-04-11T01:26:11.813Z,0
2018-04-11T01:27:12.467Z,0
2018-04-11T01:28:13.126Z,0
2018-04-11T01:29:13.780Z,0
2018-04-11T01:30:14.440Z,0
2018-04-11T01:31:15.091Z,0
2018-04-11T01:32:15.748Z,0
2018-04-11T01:33:16.403Z,0
2018-04-11T01:34:17.059Z,0
2018-04-11T01:35:17.714Z,0
2018-04-11T01:36:18.369Z,0
2018-04-11T01:37:19.028Z,0
2018-04-11T01:38:19.684Z,0
2018-04-11T01:39:20.337Z,0
2018-04-11T01:40:20.993Z,0
2018-04-11T01:41:21.648Z,0
2018-04-11T01:42:22.304Z,0
2018-04-11T01:43:22.962Z,0
2018-04-11T01:44:23.614Z,0
2018-04-11T01:45:24.270Z,0
2018-04-11T01:46:24.926Z,0
2018-04-11T01:47:25.631Z,0
2018-04-11T01:48:26.287Z,0
2018-04-11T01:49:26.942Z,0
2018-04-11T01:50:27.600Z,0
2018-04-11T01:51:28.255Z,0
2018-04-11T01:52:28.910Z,0
2018-04-11T01:53:29.566Z,0
2018-04-11T01:54:30.224Z,0
2018-04-11T01:55:30.914Z,0
2018-04-11T01:56:31.571Z,0
2018-04-11T01:57:32.266Z,0
2018-04-11T01:58:32.922Z,0
2018-04-11T01:59:33.577Z,0
2018-04-11T02:00:34.233Z,0
2018-04-11T02:01:34.892Z,0
2018-04-11T02:02:35.545Z,0
2018-04-11T02:03:36.200Z,0
2018-04-11T02:04:36.858Z,0
2018-04-11T02:05:37.513Z,0
2018-04-11T02:06:38.170Z,0
2018-04-11T02:07:38.824Z,0
2018-04-11T02:08:39.481Z,0
2018-04-11T02:09:40.160Z,0
2018-04-11T02:10:40.792Z,0
2018-04-11T02:11:41.447Z,0
2018-04-11T02:12:42.106Z,0
2018-04-11T02:13:42.758Z,0
2018-04-11T02:14:43.417Z,0
2018-04-11T02:15:44.069Z,0
2018-04-11T02:16:44.724Z,0
2018-04-11T02:17:45.379Z,0
2018-04-11T02:18:46.036Z,0
2018-04-11T02:19:46.690Z,0
2018-04-11T02:20:47.345Z,0
2018-04-11T02:21:48.000Z,0
2018-04-11T02:22:48.656Z,0
2018-04-11T02:23:49.311Z,0
2018-04-11T02:24:49.968Z,0
2018-04-11T02:25:50.622Z,0
2018-04-11T02:26:51.319Z,0
2018-04-11T02:27:51.971Z,0
2018-04-11T02:28:52.628Z,0
2018-04-11T02:29:53.285Z,0
2018-04-11T02:30:53.942Z,0
2018-04-11T02:31:54.596Z,0
2018-04-11T02:32:55.251Z,0
2018-04-11T02:33:55.906Z,0
2018-04-11T02:34:56.563Z,0
2018-04-11T02:35:57.218Z,0
2018-04-11T02:36:57.874Z,0
2018-04-11T02:37:58.528Z,0
2018-04-11T02:38:59.185Z,0
2018-04-11T02:39:59.841Z,0
2018-04-11T02:41:00.496Z,0
2018-04-11T02:42:01.152Z,0
2018-04-11T02:43:01.808Z,0
2018-04-11T02:44:02.464Z,0
2018-04-11T02:45:03.120Z,0
2018-04-11T02:46:03.773Z,0
2018-04-11T02:47:04.430Z,0
2018-04-11T02:48:05.083Z,0
2018-04-11T02:49:05.738Z,0
2018-04-11T02:50:06.395Z,0
2018-04-11T02:51:07.053Z,0
2018-04-11T02:52:07.705Z,0
2018-04-11T02:53:08.359Z,0
2018-04-11T02:54:09.052Z,0
2018-04-11T02:55:09.708Z,0
2018-04-11T02:56:10.364Z,0
2018-04-11T02:57:11.020Z,0
2018-04-11T02:58:11.674Z,0
2018-04-11T02:59:12.331Z,0
2018-04-11T03:00:13.023Z,0
2018-04-11T03:01:13.691Z,0
2018-04-11T03:02:14.371Z,0
2018-04-11T03:03:15.076Z,0
2018-04-11T03:04:15.730Z,0
2018-04-11T03:05:16.385Z,0
2018-04-11T03:06:17.041Z,0
2018-04-11T03:07:17.698Z,0
2018-04-11T03:08:18.391Z,0
2018-04-11T03:09:19.070Z,0
2018-04-11T03:10:19.705Z,0
2018-04-11T03:11:20.392Z,0
2018-04-11T03:12:21.049Z,0
2018-04-11T03:13:21.703Z,0
2018-04-11T03:14:22.364Z,0
2018-04-11T03:15:23.014Z,0
2018-04-11T03:16:23.669Z,0
2018-04-11T03:17:24.324Z,0
2018-04-11T03:18:25.025Z,0
2018-04-11T03:19:25.672Z,0
2018-04-11T03:20:26.326Z,0
2018-04-11T03:21:26.984Z,0
2018-04-11T03:22:27.640Z,0
2018-04-11T03:23:28.295Z,0
2018-04-11T03:24:28.949Z,0
2018-04-11T03:25:29.604Z,0
2018-04-11T03:26:30.260Z,0
2018-04-11T03:27:30.913Z,0
2018-04-11T03:28:31.569Z,0
2018-04-11T03:29:32.224Z,0
2018-04-11T03:30:32.878Z,0
2018-04-11T03:31:33.538Z,0
2018-04-11T03:32:34.189Z,0
2018-04-11T03:33:34.861Z,0
2018-04-11T03:34:35.500Z,0
2018-04-11T03:35:36.192Z,0
2018-04-11T03:36:36.849Z,0
2018-04-11T03:37:37.541Z,0
2018-04-11T03:38:38.195Z,0
2018-04-11T03:39:38.852Z,0
2018-04-11T03:40:39.505Z,0
2018-04-11T03:41:40.162Z,0
2018-04-11T03:42:40.815Z,0
2018-04-11T03:43:41.476Z,0
2018-04-11T03:44:42.125Z,0
2018-04-11T03:45:42.781Z,0
2018-04-11T03:46:43.436Z,0
2018-04-11T03:47:44.091Z,0
2018-04-11T03:48:44.746Z,0
2018-04-11T03:49:45.403Z,0
2018-04-11T03:50:46.056Z,0
2018-04-11T03:51:46.711Z,0
2018-04-11T03:52:47.366Z,0
2018-04-11T03:53:48.021Z,0
2018-04-11T03:54:48.694Z,0
2018-04-11T03:55:49.368Z,0
2018-04-11T03:56:50.022Z,0
2018-04-11T03:57:50.679Z,0
2018-04-11T03:58:51.332Z,0
2018-04-11T03:59:51.987Z,0
2018-04-11T04:00:52.643Z,4
2018-04-11T04:01:53.298Z,4
2018-04-11T04:02:53.952Z,0
2018-04-11T04:03:54.606Z,4
2018-04-11T04:04:55.260Z,4
2018-04-11T04:05:55.916Z,4
2018-04-11T04:06:56.575Z,8
2018-04-11T04:07:57.226Z,8
2018-04-11T04:08:57.880Z,8
2018-04-11T04:09:58.536Z,8
2018-04-11T04:10:59.191Z,12
2018-04-11T04:11:59.847Z,16
2018-04-11T04:13:00.502Z,16
2018-04-11T04:14:01.161Z,20
2018-04-11T04:15:01.818Z,24
2018-04-11T04:16:02.511Z,28
2018-04-11T04:17:03.166Z,28
2018-04-11T04:18:03.824Z,32
2018-04-11T04:19:04.529Z,40
2018-04-11T04:20:05.183Z,44
2018-04-11T04:21:05.839Z,52
2018-04-11T04:22:06.534Z,60
2018-04-11T04:23:07.188Z,68
2018-04-11T04:24:07.843Z,76
2018-04-11T04:25:08.498Z,88
2018-04-11T04:26:09.155Z,96
2018-04-11T04:27:09.813Z,104
2018-04-11T04:28:10.470Z,116
2018-04-11T04:29:11.126Z,124
2018-04-11T04:30:11.783Z,136
2018-04-11T04:31:12.440Z,156
2018-04-11T04:32:13.098Z,168
2018-04-11T04:33:13.756Z,188
2018-04-11T04:34:14.411Z,208
2018-04-11T04:35:15.067Z,232
2018-04-11T04:36:15.724Z,256
2018-04-11T04:37:16.382Z,284
2018-04-11T04:38:17.076Z,320
2018-04-11T04:39:17.734Z,360
2018-04-11T04:40:18.392Z,404
2018-04-11T04:41:19.051Z,452
2018-04-11T04:42:19.708Z,488
2018-04-11T04:43:20.366Z,508
2018-04-11T04:44:21.024Z,512
2018-04-11T04:45:21.681Z,516
2018-04-11T04:46:22.339Z,540
2018-04-11T04:47:22.997Z,568
2018-04-11T04:48:23.655Z,596
2018-04-11T04:49:24.314Z,632
2018-04-11T04:50:24.972Z,680
2018-04-11T04:51:25.628Z,740
2018-04-11T04:52:26.287Z,812
2018-04-11T04:53:26.983Z,892
2018-04-11T04:54:27.642Z,972
2018-04-11T04:55:28.302Z,1008
2018-04-11T04:56:28.960Z,1028
2018-04-11T04:57:29.619Z,1068
2018-04-11T04:58:30.286Z,1124
2018-04-11T04:59:30.939Z,1224
2018-04-11T05:00:31.598Z,1368
2018-04-11T05:01:32.258Z,1516
2018-04-11T05:02:32.953Z,1632
2018-04-11T05:03:33.613Z,1708
2018-04-11T05:04:34.273Z,1752
2018-04-11T05:05:34.931Z,1776
2018-04-11T05:06:35.589Z,1800
2018-04-11T05:07:36.256Z,1804
2018-04-11T05:08:36.947Z,1836
2018-04-11T05:09:37.606Z,1848
2018-04-11T05:10:38.265Z,1852
2018-04-11T05:11:38.928Z,1856
2018-04-11T05:12:39.584Z,1896
2018-04-11T05:13:40.245Z,1916
2018-04-11T05:14:40.901Z,1920
2018-04-11T05:15:41.562Z,1920
2018-04-11T05:16:42.224Z,1940
2018-04-11T05:17:42.916Z,2028
2018-04-11T05:18:43.577Z,2168
2018-04-11T05:19:44.273Z,2296
2018-04-11T05:20:44.934Z,2368
2018-04-11T05:21:45.648Z,2352
2018-04-11T05:22:46.288Z,2280
2018-04-11T05:23:46.949Z,2248
2018-04-11T05:24:47.610Z,2264
2018-04-11T05:25:48.277Z,2300
2018-04-11T05:26:48.930Z,2348
2018-04-11T05:27:49.589Z,2340
2018-04-11T05:28:50.249Z,2272
2018-04-11T05:29:50.910Z,2200
2018-04-11T05:30:51.569Z,2108
2018-04-11T05:31:52.230Z,1988
2018-04-11T05:32:52.892Z,1916
2018-04-11T05:33:53.550Z,1852
2018-04-11T05:34:54.211Z,1812
2018-04-11T05:35:54.905Z,1820
2018-04-11T05:36:55.564Z,1860
2018-04-11T05:37:56.229Z,1908
2018-04-11T05:38:56.925Z,1952
2018-04-11T05:39:57.638Z,2020
2018-04-11T05:40:58.245Z,2108
2018-04-11T05:41:58.906Z,2196
2018-04-11T05:42:59.564Z,2256
2018-04-11T05:44:00.226Z,2244
2018-04-11T05:45:00.912Z,2196
2018-04-11T05:46:01.612Z,2144
2018-04-11T05:47:02.271Z,2104
2018-04-11T05:48:02.951Z,2064
2018-04-11T05:49:03.594Z,2020
2018-04-11T05:50:04.253Z,1972
2018-04-11T05:51:04.913Z,1916
2018-04-11T05:52:05.574Z,1844
2018-04-11T05:53:06.253Z,1748
2018-04-11T05:54:06.894Z,1660
2018-04-11T05:55:07.554Z,1600
2018-04-11T05:56:08.216Z,1580
2018-04-11T05:57:08.876Z,1604
2018-04-11T05:58:09.534Z,1688
2018-04-11T05:59:10.196Z,1820
2018-04-11T06:00:10.865Z,2000
2018-04-11T06:01:11.516Z,2152
2018-04-11T06:02:12.176Z,2252
2018-04-11T06:03:12.838Z,2324
2018-04-11T06:04:13.499Z,2360
2018-04-11T06:05:14.158Z,2364
2018-04-11T06:06:14.818Z,2340
2018-04-11T06:07:15.479Z,2376
2018-04-11T06:08:16.140Z,2468
2018-04-11T06:09:16.802Z,2540
2018-04-11T06:10:17.463Z,2576
2018-04-11T06:11:18.125Z,2628
2018-04-11T06:12:18.785Z,2772
2018-04-11T06:13:19.445Z,2960
2018-04-11T06:14:20.106Z,3100
2018-04-11T06:15:20.767Z,3152
2018-04-11T06:16:21.428Z,3224
2018-04-11T06:17:22.092Z,3368
2018-04-11T06:18:22.756Z,3500
2018-04-11T06:19:23.417Z,3600
2018-04-11T06:20:24.079Z,3660
2018-04-11T06:21:24.738Z,3720
2018-04-11T06:22:25.401Z,3768
2018-04-11T06:23:26.064Z,3820
2018-04-11T06:24:26.724Z,3748
2018-04-11T06:25:27.426Z,3568
2018-04-11T06:26:28.089Z,3524
2018-04-11T06:27:28.786Z,3668
2018-04-11T06:28:29.449Z,3872
2018-04-11T06:29:30.109Z,3968
2018-04-11T06:30:30.772Z,3992
2018-04-11T06:31:31.471Z,3908
2018-04-11T06:32:32.136Z,3704
2018-04-11T06:33:32.796Z,3444
2018-04-11T06:34:33.458Z,3184
2018-04-11T06:35:34.117Z,2944
2018-04-11T06:36:34.780Z,2760
2018-04-11T06:37:35.445Z,2620
2018-04-11T06:38:36.101Z,2528
2018-04-11T06:39:36.764Z,2500
2018-04-11T06:40:37.426Z,2500
2018-04-11T06:41:38.085Z,2500
2018-04-11T06:42:38.746Z,2424
2018-04-11T06:43:39.410Z,2244
2018-04-11T06:44:40.070Z,2012
2018-04-11T06:45:40.731Z,1872
2018-04-11T06:46:41.394Z,1796
2018-04-11T06:47:42.056Z,1732
2018-04-11T06:48:42.717Z,1648
2018-04-11T06:49:43.419Z,1544
2018-04-11T06:50:44.112Z,1480
2018-04-11T06:51:44.776Z,1484
2018-04-11T06:52:45.436Z,1536
2018-04-11T06:53:46.096Z,1584
2018-04-11T06:54:46.759Z,1604
2018-04-11T06:55:47.454Z,1628
2018-04-11T06:56:48.116Z,1660
2018-04-11T06:57:48.778Z,1704
2018-04-11T06:58:49.439Z,1764
2018-04-11T06:59:50.099Z,1812
2018-04-11T07:00:50.761Z,1856
2018-04-11T07:01:51.421Z,1928
2018-04-11T07:02:52.081Z,2032
2018-04-11T07:03:52.747Z,2140
2018-04-11T07:04:53.409Z,2224
2018-04-11T07:05:54.071Z,2332
2018-04-11T07:06:54.733Z,2476
2018-04-11T07:07:55.437Z,2580
2018-04-11T07:08:56.093Z,2664
2018-04-11T07:09:56.756Z,2888
2018-04-11T07:10:57.417Z,3188
2018-04-11T07:11:58.081Z,3380
2018-04-11T07:12:58.746Z,3460
2018-04-11T07:13:59.444Z,3588
2018-04-11T07:15:00.107Z,3508
2018-04-11T07:16:00.770Z,3200
2018-04-11T07:17:01.432Z,2884
2018-04-11T07:18:02.094Z,2720
2018-04-11T07:19:02.758Z,2508
2018-04-11T07:20:03.421Z,2172
2018-04-11T07:21:04.088Z,1916
2018-04-11T07:22:04.781Z,1860
2018-04-11T07:23:05.449Z,1928
2018-04-11T07:24:06.111Z,1928
2018-04-11T07:25:06.775Z,1832
2018-04-11T07:26:07.432Z,1756
2018-04-11T07:27:08.097Z,1740
2018-04-11T07:28:08.797Z,1796
2018-04-11T07:29:09.459Z,1952
2018-04-11T07:30:10.123Z,2132
2018-04-11T07:31:10.826Z,2336
2018-04-11T07:32:11.487Z,2484
2018-04-11T07:33:12.148Z,2700
2018-04-11T07:34:12.814Z,3064
2018-04-11T07:35:13.476Z,3444
2018-04-11T07:36:14.788Z,3768
2018-04-11T07:37:15.450Z,4028
2018-04-11T07:38:16.116Z,4144
2018-04-11T07:39:16.778Z,4192
2018-04-11T07:40:17.505Z,4228
2018-04-11T07:41:18.103Z,4320
2018-04-11T07:42:18.766Z,4548
2018-04-11T07:43:19.427Z,4772
2018-04-11T07:44:20.096Z,4844
2018-04-11T07:45:20.758Z,4908
2018-04-11T07:46:21.421Z,4980
2018-04-11T07:47:22.084Z,5104
2018-04-11T07:48:22.783Z,5220
2018-04-11T07:49:23.482Z,5208
2018-04-11T07:50:24.155Z,5120
2018-04-11T07:51:24.825Z,4976
2018-04-11T07:52:25.484Z,4952
2018-04-11T07:53:26.152Z,5100
2018-04-11T07:54:26.851Z,5260
2018-04-11T07:55:27.489Z,5276
2018-04-11T07:56:28.158Z,5208
2018-04-11T07:57:28.822Z,5180
2018-04-11T07:58:29.495Z,5232
2018-04-11T07:59:30.167Z,5240
2018-04-11T08:00:30.834Z,5192
2018-04-11T08:01:31.498Z,4968
2018-04-11T08:02:32.162Z,4636
2018-04-11T08:03:32.888Z,4364
2018-04-11T08:04:33.525Z,4272
2018-04-11T08:05:34.233Z,4248
2018-04-11T08:06:34.901Z,4248
2018-04-11T08:07:35.566Z,4196
2018-04-11T08:08:36.229Z,4120
2018-04-11T08:09:36.903Z,4152
2018-04-11T08:10:37.557Z,4236
2018-04-11T08:11:38.228Z,4076
2018-04-11T08:12:38.902Z,3780
2018-04-11T08:13:39.575Z,3608
2018-04-11T08:14:40.242Z,3588
2018-04-11T08:15:40.909Z,3660
2018-04-11T08:16:41.571Z,3880
2018-04-11T08:17:42.237Z,4100
2018-04-11T08:18:42.908Z,4312
2018-04-11T08:19:43.587Z,4456
2018-04-11T08:20:44.255Z,4328
2018-04-11T08:21:44.975Z,4180
2018-04-11T08:22:45.646Z,4072
2018-04-11T08:23:46.314Z,3964
2018-04-11T08:24:46.980Z,3964
2018-04-11T08:25:47.678Z,4104
2018-04-11T08:26:48.352Z,4272
2018-04-11T08:27:49.014Z,4484
2018-04-11T08:28:49.725Z,4756
2018-04-11T08:29:50.423Z,4856
2018-04-11T08:30:51.091Z,4740
2018-04-11T08:31:51.763Z,4452
2018-04-11T08:32:52.427Z,4192
2018-04-11T08:33:53.135Z,4124
2018-04-11T08:34:53.805Z,4244
2018-04-11T08:35:54.475Z,4332
2018-04-11T08:36:55.146Z,4240
2018-04-11T08:37:55.815Z,4032
2018-04-11T08:38:56.490Z,3976
2018-04-11T08:39:57.159Z,4068
2018-04-11T08:40:57.874Z,4140
2018-04-11T08:41:58.536Z,4112
2018-04-11T08:42:59.206Z,3848
2018-04-11T08:43:59.868Z,3484
2018-04-11T08:45:00.530Z,3096
2018-04-11T08:46:01.193Z,2936
2018-04-11T08:47:01.859Z,2636
2018-04-11T08:48:02.565Z,2260
2018-04-11T08:49:03.236Z,1928
2018-04-11T08:50:03.897Z,1748
2018-04-11T08:51:04.560Z,1692
2018-04-11T08:52:05.224Z,1712
2018-04-11T08:53:05.887Z,1876
2018-04-11T08:54:06.549Z,2160
2018-04-11T08:55:07.220Z,2440
2018-04-11T08:56:07.881Z,2616
2018-04-11T08:57:08.547Z,2708
2018-04-11T08:58:09.205Z,2816
2018-04-11T08:59:09.871Z,2744
2018-04-11T09:00:10.536Z,2508
2018-04-11T09:01:11.245Z,2380
2018-04-11T09:02:11.908Z,2344
2018-04-11T09:03:12.583Z,2224
2018-04-11T09:04:13.253Z,2004
2018-04-11T09:05:13.916Z,1816
2018-04-11T09:06:14.589Z,1832
2018-04-11T09:07:15.264Z,1924
2018-04-11T09:08:15.921Z,2004
2018-04-11T09:09:16.595Z,2100
2018-04-11T09:10:17.257Z,2164
2018-04-11T09:11:17.924Z,2136
2018-04-11T09:12:18.583Z,2040
2018-04-11T09:13:19.244Z,1964
2018-04-11T09:14:19.905Z,1976
2018-04-11T09:15:20.567Z,2084
2018-04-11T09:16:21.234Z,2160
2018-04-11T09:17:21.938Z,2092
2018-04-11T09:18:22.610Z,1880
2018-04-11T09:19:23.272Z,1636
2018-04-11T09:20:23.943Z,1488
2018-04-11T09:21:24.604Z,1504
2018-04-11T09:22:25.275Z,1628
2018-04-11T09:23:25.938Z,1776
2018-04-11T09:24:26.638Z,1884
2018-04-11T09:25:27.299Z,1968
2018-04-11T09:26:27.966Z,2000
2018-04-11T09:27:28.675Z,1904
2018-04-11T09:28:29.343Z,1788
2018-04-11T09:29:30.012Z,1704
2018-04-11T09:30:30.677Z,1604
2018-04-11T09:31:31.349Z,1512
2018-04-11T09:32:32.010Z,1400
2018-04-11T09:33:32.671Z,1264
2018-04-11T09:34:33.341Z,1144
2018-04-11T09:35:34.005Z,1068
2018-04-11T09:36:34.674Z,1048
2018-04-11T09:37:35.335Z,1064
2018-04-11T09:38:36.007Z,1088
2018-04-11T09:39:36.675Z,1124
2018-04-11T09:40:37.335Z,1180
2018-04-11T09:41:37.997Z,1260
2018-04-11T09:42:38.666Z,1364
2018-04-11T09:43:39.382Z,1468
2018-04-11T09:44:40.093Z,1584
2018-04-11T09:45:40.753Z,1752
2018-04-11T09:46:41.459Z,2000
2018-04-11T09:47:42.123Z,2276
2018-04-11T09:48:42.791Z,2536
2018-04-11T09:49:43.461Z,2792
2018-04-11T09:50:44.124Z,3116
2018-04-11T09:51:44.784Z,3484
2018-04-11T09:52:45.488Z,3716
2018-04-11T09:53:46.156Z,3864
2018-04-11T09:54:46.822Z,4032
2018-04-11T09:55:47.484Z,4252
2018-04-11T09:56:48.151Z,4584
2018-04-11T09:57:48.815Z,4900
2018-04-11T09:58:49.484Z,5040
2018-04-11T09:59:50.154Z,5036
2018-04-11T10:00:50.820Z,5056
2018-04-11T10:01:51.486Z,5156
2018-04-11T10:02:52.151Z,5244
2018-04-11T10:03:52.816Z,5336
2018-04-11T10:04:53.518Z,5412
2018-04-11T10:05:54.190Z,5464
2018-04-11T10:06:54.873Z,5500
2018-04-11T10:07:55.522Z,5516
2018-04-11T10:08:56.191Z,5532
2018-04-11T10:09:56.858Z,5540
2018-04-11T10:10:57.556Z,5548
2018-04-11T10:11:58.262Z,5584
2018-04-11T10:12:58.923Z,5684
2018-04-11T10:13:59.586Z,5872
2018-04-11T10:15:00.254Z,6132
2018-04-11T10:16:00.918Z,6440
2018-04-11T10:17:01.589Z,6768
2018-04-11T10:18:02.306Z,7132
2018-04-11T10:19:03.023Z,7432
2018-04-11T10:20:03.686Z,7744
2018-04-11T10:21:04.347Z,8092
2018-04-11T10:22:05.012Z,8368
2018-04-11T10:23:05.676Z,8452
2018-04-11T10:24:06.339Z,8432
2018-04-11T10:25:07.003Z,8344
2018-04-11T10:26:07.671Z,8184
2018-04-11T10:27:08.337Z,8016
2018-04-11T10:28:09.000Z,7824
2018-04-11T10:29:09.665Z,7584
2018-04-11T10:30:10.331Z,7336
2018-04-11T10:31:10.997Z,7068
2018-04-11T10:32:11.664Z,6804
2018-04-11T10:33:12.327Z,6672
2018-04-11T10:34:12.991Z,6628
2018-04-11T10:35:13.655Z,6708
2018-04-11T10:36:14.318Z,6864
2018-04-11T10:37:14.981Z,7036
2018-04-11T10:38:15.646Z,7272
2018-04-11T10:39:16.313Z,7488
2018-04-11T10:40:16.976Z,7676
2018-04-11T10:41:17.639Z,7808
2018-04-11T10:42:18.302Z,7812
2018-04-11T10:43:18.967Z,7672
2018-04-11T10:44:19.630Z,7380
2018-04-11T10:45:20.293Z,7000
2018-04-11T10:46:20.958Z,6620
2018-04-11T10:47:21.623Z,6348
2018-04-11T10:48:22.288Z,6216
2018-04-11T10:49:22.953Z,6180
2018-04-11T10:50:23.616Z,6168
2018-04-11T10:51:24.284Z,6240
2018-04-11T10:52:24.947Z,6264
2018-04-11T10:53:25.611Z,6300
2018-04-11T10:54:26.273Z,6356
2018-04-11T10:55:26.939Z,6444
2018-04-11T10:56:27.610Z,6564
2018-04-11T10:57:28.280Z,6712
2018-04-11T10:58:28.944Z,6908
2018-04-11T10:59:29.611Z,7128
2018-04-11T11:00:30.277Z,7352
2018-04-11T11:01:30.946Z,7632
2018-04-11T11:02:31.613Z,7924
2018-04-11T11:03:32.277Z,8188
2018-04-11T11:04:32.940Z,8348
2018-04-11T11:05:33.610Z,8380
2018-04-11T11:06:34.276Z,8268
2018-04-11T11:07:34.975Z,8004
2018-04-11T11:08:35.648Z,7552
2018-04-11T11:09:36.311Z,7168
2018-04-11T11:10:36.979Z,6868
2018-04-11T11:11:37.681Z,6632
2018-04-11T11:12:38.345Z,6392
2018-04-11T11:13:39.018Z,6292
2018-04-11T11:14:39.676Z,6356
2018-04-11T11:15:40.339Z,6596
2018-04-11T11:16:41.004Z,6972
2018-04-11T11:17:41.667Z,7456
2018-04-11T11:18:42.331Z,8036
2018-04-11T11:19:43.001Z,8660
2018-04-11T11:20:43.663Z,9232
2018-04-11T11:21:44.328Z,9708
2018-04-11T11:22:44.992Z,10148
2018-04-11T11:23:45.657Z,10572
2018-04-11T11:24:46.324Z,11040
2018-04-11T11:25:46.993Z,11452
2018-04-11T11:26:47.658Z,11716
2018-04-11T11:27:48.327Z,11748
2018-04-11T11:28:48.992Z,11552
2018-04-11T11:29:49.665Z,11208
2018-04-11T11:30:50.330Z,10784
2018-04-11T11:31:51.003Z,10264
2018-04-11T11:32:51.676Z,9644
2018-04-11T11:33:52.340Z,9028
2018-04-11T11:34:53.011Z,8444
2018-04-11T11:35:53.677Z,7964
2018-04-11T11:36:54.354Z,7444
2018-04-11T11:37:55.064Z,7052
2018-04-11T11:38:55.731Z,6884
2018-04-11T11:39:56.411Z,6968
2018-04-11T11:40:57.073Z,7304
2018-04-11T11:41:57.748Z,7940
2018-04-11T11:42:58.460Z,8792
2018-04-11T11:43:59.128Z,9596
2018-04-11T11:44:59.796Z,9936
2018-04-11T11:46:00.513Z,9868
2018-04-11T11:47:01.137Z,9744
2018-04-11T11:48:01.810Z,9464
2018-04-11T11:49:02.521Z,9608
2018-04-11T11:50:03.192Z,10000
2018-04-11T11:51:03.861Z,10900
2018-04-11T11:52:04.540Z,10488
2018-04-11T11:53:05.193Z,10180
2018-04-11T11:54:05.865Z,9508
2018-04-11T11:55:06.533Z,8964
2018-04-11T11:56:07.200Z,9304
2018-04-11T11:57:07.868Z,10280
2018-04-11T11:58:08.539Z,11064
2018-04-11T11:59:09.201Z,12524
2018-04-11T12:00:09.870Z,12112
2018-04-11T12:01:10.539Z,12788
2018-04-11T12:02:11.256Z,12532
2018-04-11T12:03:11.879Z,12252
2018-04-11T12:04:12.585Z,12076
2018-04-11T12:05:13.257Z,11944
2018-04-11T12:06:13.926Z,11664
2018-04-11T12:07:14.592Z,11240
2018-04-11T12:08:15.259Z,10688
2018-04-11T12:09:15.934Z,10208
2018-04-11T12:10:16.607Z,9892
2018-04-11T12:11:17.274Z,9600
2018-04-11T12:12:17.940Z,9096
2018-04-11T12:13:18.613Z,9208
2018-04-11T12:14:19.285Z,8852
2018-04-11T12:15:19.954Z,7516
2018-04-11T12:16:20.629Z,5636
2018-04-11T12:17:21.297Z,7856
2018-04-11T12:18:21.972Z,7608
2018-04-11T12:19:22.690Z,7436
2018-04-11T12:20:23.301Z,7412
2018-04-11T12:21:23.969Z,7404
2018-04-11T12:22:24.636Z,7268
2018-04-11T12:23:25.307Z,6928
2018-04-11T12:24:25.983Z,6608
2018-04-11T12:25:26.655Z,6384
2018-04-11T12:26:27.329Z,6304
2018-04-11T12:27:27.996Z,6196
2018-04-11T12:28:28.665Z,6252
2018-04-11T12:29:29.333Z,6308
2018-04-11T12:30:30.012Z,6160
2018-04-11T12:31:30.704Z,6200
2018-04-11T12:32:31.373Z,6332
2018-04-11T12:33:32.043Z,6308
2018-04-11T12:34:32.709Z,6296
2018-04-11T12:35:33.373Z,6232
2018-04-11T12:36:34.038Z,6172
2018-04-11T12:37:34.708Z,6220
2018-04-11T12:38:35.375Z,6256
2018-04-11T12:39:36.078Z,6064
2018-04-11T12:40:36.747Z,4768
2018-04-11T12:41:37.408Z,6280
2018-04-11T12:42:38.077Z,6372
2018-04-11T12:43:38.739Z,6424
2018-04-11T12:44:39.405Z,6500
2018-04-11T12:45:40.072Z,6760
2018-04-11T12:46:40.750Z,4064
2018-04-11T12:47:41.415Z,5148
2018-04-11T12:48:42.091Z,6932
2018-04-11T12:49:42.764Z,7008
2018-04-11T12:50:43.437Z,7172
2018-04-11T12:51:44.097Z,7424
2018-04-11T12:52:44.765Z,7740
2018-04-11T12:53:45.434Z,8012
2018-04-11T12:54:46.099Z,8312
2018-04-11T12:55:46.765Z,8592
2018-04-11T12:56:47.428Z,9020
2018-04-11T12:57:48.095Z,9432
2018-04-11T12:58:48.761Z,9312
2018-04-11T12:59:49.432Z,8800
2018-04-11T13:00:50.132Z,8180
2018-04-11T13:01:50.802Z,6304
2018-04-11T13:02:51.507Z,5540
2018-04-11T13:03:52.172Z,5744
2018-04-11T13:04:52.838Z,7456
2018-04-11T13:05:53.503Z,7332
2018-04-11T13:06:54.173Z,12800
2018-04-11T13:07:54.843Z,10480
2018-04-11T13:08:55.512Z,11056
2018-04-11T13:09:56.229Z,9224
2018-04-11T13:10:56.895Z,9624
2018-04-11T13:11:57.563Z,12284
2018-04-11T13:12:58.229Z,10316
2018-04-11T13:13:58.899Z,10788
2018-04-11T13:14:59.564Z,9928
2018-04-11T13:16:00.234Z,11884
2018-04-11T13:17:00.904Z,11428
2018-04-11T13:18:01.600Z,11124
2018-04-11T13:19:02.241Z,8356
2018-04-11T13:20:02.907Z,7336
2018-04-11T13:21:03.572Z,6956
2018-04-11T13:22:04.237Z,6628
2018-04-11T13:23:04.904Z,6408
2018-04-11T13:24:05.571Z,6260
2018-04-11T13:25:06.240Z,6180
2018-04-11T13:26:06.908Z,6180
2018-04-11T13:27:07.572Z,6276
2018-04-11T13:28:08.245Z,6360
2018-04-11T13:29:08.913Z,6380
2018-04-11T13:30:09.584Z,6352
2018-04-11T13:31:10.256Z,6388
2018-04-11T13:32:10.958Z,6376
2018-04-11T13:33:11.621Z,9240
2018-04-11T13:34:12.287Z,8292
2018-04-11T13:35:13.004Z,8200
2018-04-11T13:36:13.671Z,8244
2018-04-11T13:37:14.336Z,8132
2018-04-11T13:38:15.004Z,8184
2018-04-11T13:39:15.709Z,8236
2018-04-11T13:40:16.375Z,7968
2018-04-11T13:41:17.040Z,7892
2018-04-11T13:42:17.707Z,8024
2018-04-11T13:43:18.374Z,7044
2018-04-11T13:44:19.041Z,7804
2018-04-11T13:45:19.943Z,7828
2018-04-11T13:46:20.611Z,8688
2018-04-11T13:47:21.277Z,9092
2018-04-11T13:48:21.943Z,6252
2018-04-11T13:49:22.611Z,6108
2018-04-11T13:50:23.321Z,5496
2018-04-11T13:51:23.990Z,5064
2018-04-11T13:52:24.664Z,4828
2018-04-11T13:53:25.365Z,4816